Time,TemperatureF,DewpointF,PressureIn,WindDirection,WindDirectionDegrees,WindSpeedMPH,WindSpeedGustMPH,Humidity,HourlyPrecipIn,Conditions,Clouds,dailyrainin,SolarRadiationWatts/m^2,SoftwareType,DateUTC
2013-08-09 00:01:00,54.0,53.0,29.98,North,4,9.0,16.0,97,0.00,,,0.02,0.000000,,2013-08-09 07:01:00,
2013-08-09 00:12:00,54.0,53.0,29.98,North,4,9.0,16.0,97,0.00,,,0.02,0.000000,,2013-08-09 07:12:00,
2013-08-09 00:21:00,53.0,52.0,29.99,NNE,19,10.0,15.0,97,0.00,,,0.02,0.000000,,2013-08-09 07:21:00,
2013-08-09 00:33:00,53.0,52.0,29.99,NNE,13,6.0,10.0,97,0.00,,,0.01,0.000000,,2013-08-09 07:33:00,
2013-08-09 00:43:00,53.0,52.0,29.99,NNE,13,6.0,10.0,97,0.00,,,0.01,0.000000,,2013-08-09 07:43:00,
2013-08-09 00:53:00,53.0,52.0,29.98,NNE,31,8.0,11.0,97,0.00,,,0.01,0.000000,,2013-08-09 07:53:00,
2013-08-09 01:02:00,53.0,52.0,29.98,North,7,9.0,11.0,97,0.00,,,0.01,0.000000,,2013-08-09 08:02:00,
2013-08-09 01:11:00,53.0,52.0,29.98,North,7,9.0,11.0,97,0.00,,,0.01,0.000000,,2013-08-09 08:11:00,
2013-08-09 01:32:00,52.0,51.0,29.98,NNE,19,9.0,14.0,97,0.00,,,0.01,0.000000,,2013-08-09 08:32:00,
2013-08-09 01:43:00,52.0,51.0,29.99,NE,38,5.0,11.0,97,0.00,,,0.01,0.000000,,2013-08-09 08:43:00,
2013-08-09 01:53:00,51.0,50.0,30.00,North,9,4.0,7.0,97,0.00,,,0.01,0.000000,,2013-08-09 08:53:00,
2013-08-09 02:01:00,51.0,50.0,30.00,NNE,25,3.0,7.0,97,0.00,,,0.01,0.000000,,2013-08-09 09:01:00,
2013-08-09 02:12:00,51.0,50.0,30.00,NNE,25,3.0,7.0,97,0.00,,,0.01,0.000000,,2013-08-09 09:12:00,
2013-08-09 02:22:00,51.0,50.0,29.99,North,354,2.0,5.0,97,0.00,,,0.01,0.000000,,2013-08-09 09:22:00,
2013-08-09 02:32:00,50.0,49.0,29.99,North,354,2.0,4.0,97,0.00,,,0.01,0.000000,,2013-08-09 09:32:00,
2013-08-09 02:43:00,50.0,49.0,29.99,North,354,2.0,4.0,97,0.00,,,0.01,0.000000,,2013-08-09 09:43:00,
2013-08-09 02:52:00,50.0,49.0,29.99,North,354,2.0,4.0,97,0.00,,,0.01,0.000000,,2013-08-09 09:52:00,
2013-08-09 03:01:00,50.0,49.0,29.99,North,354,2.0,4.0,97,0.00,,,0.01,0.000000,,2013-08-09 10:01:00,
2013-08-09 03:12:00,51.0,50.0,29.98,NNE,12,2.0,7.0,97,0.00,,,0.01,0.000000,,2013-08-09 10:12:00,
2013-08-09 03:22:00,51.0,50.0,29.98,NNE,15,3.0,6.0,97,0.00,,,0.01,0.000000,,2013-08-09 10:22:00,
2013-08-09 03:32:00,51.0,50.0,29.98,NNE,15,3.0,6.0,97,0.00,,,0.01,0.000000,,2013-08-09 10:32:00,
2013-08-09 03:43:00,51.0,50.0,29.98,NNE,15,3.0,6.0,97,0.00,,,0.01,0.000000,,2013-08-09 10:43:00,
2013-08-09 03:53:00,51.0,50.0,29.98,North,3,3.0,6.0,97,0.00,,,0.01,0.000000,,2013-08-09 10:53:00,
2013-08-09 04:01:00,51.0,50.0,29.98,North,3,3.0,6.0,97,0.00,,,0.01,0.000000,,2013-08-09 11:01:00,
2013-08-09 04:11:00,51.0,50.0,29.97,North,11,7.0,10.0,98,0.00,,,0.01,0.000000,,2013-08-09 11:11:00,
2013-08-09 04:33:00,53.0,52.0,29.98,NNE,13,6.0,9.0,98,0.00,,,0.01,0.000000,,2013-08-09 11:33:00,
2013-08-09 04:42:00,53.0,52.0,29.97,North,360,6.0,9.0,98,0.00,,,0.01,0.000000,,2013-08-09 11:42:00,
2013-08-09 04:53:00,52.0,51.0,29.97,NNE,19,5.0,9.0,97,0.00,,,0.01,0.000000,,2013-08-09 11:53:00,
2013-08-09 05:02:00,52.0,51.0,29.97,NNE,19,5.0,9.0,97,0.00,,,0.01,0.000000,,2013-08-09 12:02:00,
2013-08-09 05:12:00,52.0,51.0,29.97,North,11,4.0,7.0,97,0.00,,,0.01,0.000000,,2013-08-09 12:12:00,
2013-08-09 05:32:00,52.0,51.0,29.97,NNE,13,0.0,0.0,97,0.00,,,0.00,0.000000,,2013-08-09 12:32:00,
2013-08-09 05:43:00,51.0,50.0,29.96,NNW,336,6.0,8.0,97,0.00,,,0.00,0.000000,,2013-08-09 12:43:00,
2013-08-09 05:52:00,51.0,50.0,29.96,NNE,13,5.0,8.0,97,0.00,,,0.00,0.000000,,2013-08-09 12:52:00,
2013-08-09 06:01:00,51.0,50.0,29.96,NNE,13,5.0,8.0,97,0.00,,,0.00,0.000000,,2013-08-09 13:01:00,
2013-08-09 06:12:00,51.0,50.0,29.96,North,8,0.0,4.0,97,0.00,,,0.00,0.000000,,2013-08-09 13:12:00,
2013-08-09 06:23:00,51.0,50.0,29.96,North,3,5.0,8.0,97,0.00,,,0.00,0.000000,,2013-08-09 13:23:00,
2013-08-09 06:32:00,51.0,50.0,29.96,North,3,5.0,8.0,97,0.00,,,0.00,0.000000,,2013-08-09 13:32:00,
2013-08-09 06:43:00,51.0,50.0,29.96,North,9,5.0,8.0,98,0.00,,,0.00,0.000000,,2013-08-09 13:43:00,
2013-08-09 06:52:00,53.0,52.0,29.97,NNE,15,7.0,11.0,98,0.00,,,0.00,0.000000,,2013-08-09 13:52:00,
2013-08-09 07:02:00,53.0,52.0,29.97,NNE,15,7.0,11.0,98,0.00,,,0.00,0.000000,,2013-08-09 14:02:00,
2013-08-09 07:11:00,53.0,52.0,29.97,NNE,30,7.0,13.0,98,0.00,,,0.00,0.000000,,2013-08-09 14:11:00,
2013-08-09 07:33:00,53.0,52.0,29.97,North,356,6.0,11.0,98,0.00,,,0.00,7.000000,,2013-08-09 14:33:00,
2013-08-09 07:43:00,52.0,51.0,29.96,North,352,6.0,9.0,97,0.00,,,0.00,12.000000,,2013-08-09 14:43:00,
2013-08-09 07:53:00,51.0,50.0,29.96,North,360,3.0,6.0,97,0.00,,,0.00,14.000000,,2013-08-09 14:53:00,
2013-08-09 08:01:00,51.0,50.0,29.98,North,4,3.0,6.0,97,0.00,,,0.00,23.000000,,2013-08-09 15:01:00,
2013-08-09 08:11:00,51.0,50.0,29.98,North,4,3.0,6.0,97,0.00,,,0.00,23.000000,,2013-08-09 15:11:00,
2013-08-09 08:32:00,52.0,51.0,29.98,NE,55,3.0,9.0,98,0.00,,,0.00,16.000000,,2013-08-09 15:32:00,
2013-08-09 08:43:00,53.0,52.0,29.97,North,354,5.0,7.0,98,0.00,,,0.00,12.000000,,2013-08-09 15:43:00,
2013-08-09 08:53:00,52.0,51.0,29.96,North,351,10.0,13.0,97,0.00,,,0.00,9.000000,,2013-08-09 15:53:00,
2013-08-09 09:01:00,52.0,51.0,29.96,North,351,10.0,13.0,97,0.00,,,0.00,9.000000,,2013-08-09 16:01:00,
2013-08-09 09:11:00,51.0,50.0,29.98,NNE,31,5.0,9.0,98,0.01,,,0.01,70.000000,,2013-08-09 16:11:00,
2013-08-09 09:32:00,52.0,51.0,29.97,North,8,4.0,7.0,98,0.03,,,0.03,192.000000,,2013-08-09 16:32:00,
2013-08-09 09:43:00,53.0,52.0,29.97,North,354,4.0,7.0,98,0.03,,,0.03,207.000000,,2013-08-09 16:43:00,
2013-08-09 09:53:00,51.0,50.0,29.96,North,9,5.0,9.0,98,0.03,,,0.03,193.000000,,2013-08-09 16:53:00,
2013-08-09 10:02:00,52.0,51.0,29.96,NNE,25,3.0,7.0,98,0.02,,,0.03,199.000000,,2013-08-09 17:02:00,
2013-08-09 10:11:00,52.0,51.0,29.96,NNE,25,3.0,7.0,98,0.02,,,0.03,199.000000,,2013-08-09 17:11:00,
2013-08-09 10:22:00,52.0,51.0,29.96,NNW,328,3.0,7.0,98,0.00,,,0.03,190.000000,,2013-08-09 17:22:00,
2013-08-09 10:32:00,52.0,51.0,29.96,NNW,328,3.0,7.0,98,0.00,,,0.03,190.000000,,2013-08-09 17:32:00,
2013-08-09 10:43:00,52.0,51.0,29.96,North,352,5.0,7.0,98,0.00,,,0.03,255.000000,,2013-08-09 17:43:00,
2013-08-09 10:52:00,52.0,51.0,29.96,North,4,7.0,10.0,98,0.00,,,0.03,295.000000,,2013-08-09 17:52:00,
2013-08-09 11:01:00,52.0,51.0,29.96,North,4,7.0,10.0,98,0.00,,,0.03,295.000000,,2013-08-09 18:01:00,
2013-08-09 11:11:00,52.0,51.0,29.96,NNE,23,7.0,11.0,98,0.00,,,0.03,260.000000,,2013-08-09 18:11:00,
2013-08-09 11:22:00,52.0,51.0,29.96,North,360,6.0,9.0,98,0.00,,,0.03,237.000000,,2013-08-09 18:22:00,
2013-08-09 11:43:00,52.0,51.0,29.96,North,8,7.0,9.0,98,0.00,,,0.03,151.000000,,2013-08-09 18:43:00,
2013-08-09 11:53:00,52.0,51.0,29.96,North,3,5.0,10.0,98,0.00,,,0.03,105.000000,,2013-08-09 18:53:00,
2013-08-09 12:02:00,53.0,52.0,29.97,NNE,15,4.0,8.0,98,0.00,,,0.03,102.000000,,2013-08-09 19:02:00,
2013-08-09 12:11:00,53.0,52.0,29.97,NNE,15,4.0,8.0,98,0.00,,,0.03,102.000000,,2013-08-09 19:11:00,
2013-08-09 12:22:00,53.0,52.0,29.96,NNE,22,6.0,9.0,98,0.00,,,0.03,309.000000,,2013-08-09 19:22:00,
2013-08-09 12:43:00,53.0,52.0,29.96,North,355,7.0,10.0,98,0.00,,,0.03,462.000000,,2013-08-09 19:43:00,
2013-08-09 12:52:00,53.0,52.0,29.96,North,1,6.0,9.0,98,0.00,,,0.03,450.000000,,2013-08-09 19:52:00,
2013-08-09 13:02:00,53.0,52.0,29.96,North,1,6.0,9.0,98,0.00,,,0.03,450.000000,,2013-08-09 20:02:00,
2013-08-09 13:11:00,54.0,53.0,29.96,North,353,8.0,11.0,97,0.00,,,0.03,826.000000,,2013-08-09 20:11:00,
2013-08-09 13:22:00,54.0,53.0,29.96,North,4,8.0,11.0,98,0.00,,,0.03,524.000000,,2013-08-09 20:22:00,
2013-08-09 13:32:00,54.0,53.0,29.96,North,4,8.0,11.0,98,0.00,,,0.03,524.000000,,2013-08-09 20:32:00,
2013-08-09 13:43:00,55.0,54.0,29.96,North,10,10.0,14.0,98,0.00,,,0.03,882.000000,,2013-08-09 20:43:00,
2013-08-09 13:52:00,56.0,55.0,29.95,North,6,11.0,14.0,97,0.00,,,0.03,606.000000,,2013-08-09 20:52:00,
2013-08-09 14:01:00,56.0,55.0,29.95,North,6,11.0,14.0,97,0.00,,,0.03,606.000000,,2013-08-09 21:01:00,
2013-08-09 14:12:00,56.0,55.0,29.95,North,4,11.0,14.0,97,0.00,,,0.03,838.000000,,2013-08-09 21:12:00,
2013-08-09 14:22:00,56.0,55.0,29.95,North,4,13.0,17.0,97,0.00,,,0.03,861.000000,,2013-08-09 21:22:00,
2013-08-09 14:32:00,56.0,55.0,29.95,North,4,13.0,17.0,97,0.00,,,0.03,861.000000,,2013-08-09 21:32:00,
2013-08-09 14:43:00,56.0,55.0,29.95,NNE,13,13.0,16.0,96,0.00,,,0.03,715.000000,,2013-08-09 21:43:00,
2013-08-09 14:52:00,56.0,55.0,29.95,NNE,13,10.0,14.0,96,0.00,,,0.03,619.000000,,2013-08-09 21:52:00,
2013-08-09 15:01:00,56.0,55.0,29.95,NNE,13,10.0,14.0,96,0.00,,,0.03,619.000000,,2013-08-09 22:01:00,
2013-08-09 15:11:00,57.0,56.0,29.95,North,10,10.0,14.0,96,0.00,,,0.03,696.000000,,2013-08-09 22:11:00,
2013-08-09 15:22:00,57.0,56.0,29.96,North,6,13.0,16.0,95,0.00,,,0.03,782.000000,,2013-08-09 22:22:00,
2013-08-09 15:42:00,57.0,56.0,29.96,North,6,11.0,15.0,95,0.00,,,0.03,640.000000,,2013-08-09 22:42:00,
2013-08-09 15:52:00,57.0,56.0,29.96,North,360,11.0,14.0,95,0.00,,,0.03,545.000000,,2013-08-09 22:52:00,
2013-08-09 16:01:00,57.0,56.0,29.96,North,6,10.0,14.0,95,0.00,,,0.03,541.000000,,2013-08-09 23:01:00,
2013-08-09 16:11:00,57.0,56.0,29.96,North,6,10.0,14.0,95,0.00,,,0.03,541.000000,,2013-08-09 23:11:00,
2013-08-09 16:32:00,57.0,56.0,29.96,North,360,11.0,15.0,95,0.00,,,0.03,624.000000,,2013-08-09 23:32:00,
2013-08-09 16:43:00,57.0,55.0,29.96,North,359,12.0,15.0,94,0.00,,,0.03,664.000000,,2013-08-09 23:43:00,
2013-08-09 16:52:00,57.0,55.0,29.96,North,355,11.0,14.0,94,0.00,,,0.03,439.000000,,2013-08-09 23:52:00,
2013-08-09 17:01:00,57.0,55.0,29.95,North,359,12.0,15.0,94,0.00,,,0.03,422.000000,,2013-08-10 00:01:00,
2013-08-09 17:21:00,57.0,55.0,29.95,North,11,14.0,18.0,94,0.00,,,0.03,497.000000,,2013-08-10 00:21:00,
2013-08-09 17:32:00,57.0,55.0,29.95,North,11,14.0,18.0,94,0.00,,,0.03,497.000000,,2013-08-10 00:32:00,
2013-08-09 17:43:00,57.0,55.0,29.95,North,358,14.0,19.0,94,0.00,,,0.03,376.000000,,2013-08-10 00:43:00,
2013-08-09 17:52:00,57.0,55.0,29.95,North,358,14.0,19.0,94,0.00,,,0.03,376.000000,,2013-08-10 00:52:00,
2013-08-09 18:01:00,57.0,55.0,29.95,North,11,15.0,18.0,94,0.00,,,0.03,276.000000,,2013-08-10 01:01:00,
2013-08-09 18:10:00,57.0,55.0,29.94,North,359,13.0,21.0,94,0.00,,,0.03,174.000000,,2013-08-10 01:10:00,
2013-08-09 18:11:00,57.0,55.0,29.95,North,11,15.0,18.0,94,0.00,,,0.03,276.000000,,2013-08-10 01:11:00,
2013-08-09 18:21:00,57.0,55.0,29.95,North,11,15.0,18.0,94,0.00,,,0.03,276.000000,,2013-08-10 01:21:00,
2013-08-09 18:32:00,57.0,55.0,29.94,North,359,13.0,21.0,94,0.00,,,0.03,174.000000,,2013-08-10 01:32:00,
2013-08-09 18:42:00,57.0,55.0,29.94,North,359,13.0,21.0,94,0.00,,,0.03,174.000000,,2013-08-10 01:42:00,
2013-08-09 18:52:00,57.0,55.0,29.94,North,359,13.0,21.0,94,0.00,,,0.03,174.000000,,2013-08-10 01:52:00,
2013-08-09 19:03:00,57.0,55.0,29.94,North,359,13.0,21.0,94,0.00,,,0.03,174.000000,,2013-08-10 02:03:00,
2013-08-09 19:21:00,57.0,56.0,29.92,NNE,18,14.0,22.0,95,0.00,,,0.03,90.000000,,2013-08-10 02:21:00,
2013-08-09 19:32:00,57.0,56.0,29.92,NNE,18,14.0,22.0,95,0.00,,,0.03,90.000000,,2013-08-10 02:32:00,
2013-08-09 19:42:00,57.0,56.0,29.92,NNE,18,14.0,22.0,95,0.00,,,0.03,90.000000,,2013-08-10 02:42:00,
2013-08-09 19:52:00,57.0,56.0,29.92,NNE,18,14.0,22.0,95,0.00,,,0.03,90.000000,,2013-08-10 02:52:00,
2013-08-09 20:01:00,57.0,56.0,29.92,NNE,18,14.0,22.0,95,0.00,,,0.03,90.000000,,2013-08-10 03:01:00,
2013-08-09 20:11:00,57.0,56.0,29.96,NNE,29,11.0,16.0,96,0.00,,,0.03,23.000000,,2013-08-10 03:11:00,
2013-08-09 20:21:00,57.0,56.0,29.96,NNE,29,11.0,16.0,96,0.00,,,0.03,23.000000,,2013-08-10 03:21:00,
2013-08-09 20:32:00,57.0,56.0,29.96,NNE,29,11.0,16.0,96,0.00,,,0.03,23.000000,,2013-08-10 03:32:00,
2013-08-09 20:42:00,57.0,56.0,29.96,NNE,29,11.0,16.0,96,0.00,,,0.03,23.000000,,2013-08-10 03:42:00,
2013-08-09 20:51:00,56.0,55.0,29.96,North,11,9.0,12.0,96,0.00,,,0.03,16.000000,,2013-08-10 03:51:00,
2013-08-09 21:01:00,56.0,55.0,29.96,North,11,9.0,12.0,96,0.00,,,0.03,16.000000,,2013-08-10 04:01:00,
2013-08-09 21:12:00,56.0,55.0,29.96,North,11,9.0,12.0,96,0.00,,,0.03,16.000000,,2013-08-10 04:12:00,
2013-08-09 21:22:00,57.0,56.0,29.97,NE,36,10.0,19.0,96,0.00,,,0.03,0.000000,,2013-08-10 04:22:00,
2013-08-09 21:32:00,57.0,56.0,29.98,NNE,20,7.0,14.0,96,0.00,,,0.03,0.000000,,2013-08-10 04:32:00,
2013-08-09 21:43:00,57.0,56.0,29.98,NNE,20,7.0,14.0,96,0.00,,,0.03,0.000000,,2013-08-10 04:43:00,
2013-08-09 21:53:00,57.0,56.0,29.98,NE,35,7.0,13.0,96,0.00,,,0.03,0.000000,,2013-08-10 04:53:00,
2013-08-09 22:02:00,57.0,56.0,29.98,NNE,19,2.0,12.0,96,0.00,,,0.03,0.000000,,2013-08-10 05:02:00,
2013-08-09 22:11:00,57.0,56.0,29.98,NNE,19,2.0,12.0,96,0.00,,,0.03,0.000000,,2013-08-10 05:11:00,
2013-08-09 22:32:00,56.0,55.0,29.97,North,11,4.0,9.0,96,0.00,,,0.03,0.000000,,2013-08-10 05:32:00,
2013-08-09 22:42:00,55.0,54.0,29.97,North,5,5.0,9.0,96,0.00,,,0.03,0.000000,,2013-08-10 05:42:00,
2013-08-09 22:52:00,54.0,53.0,29.98,North,11,5.0,8.0,96,0.00,,,0.03,0.000000,,2013-08-10 05:52:00,
2013-08-09 23:01:00,54.0,53.0,29.98,North,11,5.0,8.0,96,0.00,,,0.03,0.000000,,2013-08-10 06:01:00,
2013-08-09 23:11:00,54.0,53.0,29.98,NNE,29,5.0,9.0,96,0.00,,,0.03,0.000000,,2013-08-10 06:11:00,
2013-08-09 23:32:00,55.0,54.0,29.98,North,4,9.0,14.0,97,0.00,,,0.03,0.000000,,2013-08-10 06:32:00,
2013-08-09 23:44:00,56.0,55.0,29.98,NE,38,9.0,14.0,97,0.00,,,0.03,0.000000,,2013-08-10 06:44:00,
2013-08-09 23:53:00,56.0,55.0,29.98,NE,44,7.0,12.0,97,0.00,,,0.03,0.000000,,2013-08-10 06:53:00,